sensor_id;sensor_type;location;lat;lon;timestamp;temperature;humidity
16283;DHT22;8249;48.708;9.030;2023-02-23T00:01:12;8.60;99.90
16283;DHT22;8249;48.708;9.030;2023-02-23T00:03:39;8.70;99.90
16283;DHT22;8249;48.708;9.030;2023-02-23T00:06:07;8.60;99.90
16283;DHT22;8249;48.708;9.030;2023-02-23T00:08:34;8.60;99.90
16283;DHT22;8249;48.708;9.030;2023-02-23T00:11:02;8.60;99.90
16283;DHT22;8249;48.708;9.030;2023-02-23T00:13:30;8.60;99.90
16283;DHT22;8249;48.708;9.030;2023-02-23T00:16:03;8.60;99.90
16283;DHT22;8249;48.708;9.030;2023-02-23T00:18:32;8.60;99.90
16283;DHT22;8249;48.708;9.030;2023-02-23T00:21:11;8.60;99.90
16283;DHT22;8249;48.708;9.030;2023-02-23T00:23:40;8.60;99.90
16283;DHT22;8249;48.708;9.030;2023-02-23T00:26:08;8.60;99.90
16283;DHT22;8249;48.708;9.030;2023-02-23T00:28:39;8.60;99.90
16283;DHT22;8249;48.708;9.030;2023-02-23T00:31:07;8.50;99.90
16283;DHT22;8249;48.708;9.030;2023-02-23T00:33:39;8.50;99.90
16283;DHT22;8249;48.708;9.030;2023-02-23T00:36:09;8.50;99.90
16283;DHT22;8249;48.708;9.030;2023-02-23T00:38:36;8.40;99.90
16283;DHT22;8249;48.708;9.030;2023-02-23T00:41:06;8.50;99.90
16283;DHT22;8249;48.708;9.030;2023-02-23T00:43:35;8.50;99.90
16283;DHT22;8249;48.708;9.030;2023-02-23T00:46:02;8.40;99.90
16283;DHT22;8249;48.708;9.030;2023-02-23T00:48:34;8.40;99.90
16283;DHT22;8249;48.708;9.030;2023-02-23T00:51:04;8.40;99.90
16283;DHT22;8249;48.708;9.030;2023-02-23T00:53:32;8.40;99.90
16283;DHT22;8249;48.708;9.030;2023-02-23T00:55:59;8.40;99.90
16283;DHT22;8249;48.708;9.030;2023-02-23T00:58:26;8.40;99.90
16283;DHT22;8249;48.708;9.030;2023-02-23T01:00:57;8.40;99.90
16283;DHT22;8249;48.708;9.030;2023-02-23T01:03:25;8.50;99.90
16283;DHT22;8249;48.708;9.030;2023-02-23T01:05:52;8.50;99.90
16283;DHT22;8249;48.708;9.030;2023-02-23T01:08:23;8.40;99.90
16283;DHT22;8249;48.708;9.030;2023-02-23T01:10:53;8.50;99.90
16283;DHT22;8249;48.708;9.030;2023-02-23T01:13:20;8.50;99.90
16283;DHT22;8249;48.708;9.030;2023-02-23T01:15:48;8.40;99.90
16283;DHT22;8249;48.708;9.030;2023-02-23T01:18:18;8.50;99.90
16283;DHT22;8249;48.708;9.030;2023-02-23T01:20:45;8.50;99.90
16283;DHT22;8249;48.708;9.030;2023-02-23T01:23:14;8.40;99.90
16283;DHT22;8249;48.708;9.030;2023-02-23T01:25:44;8.50;99.90
16283;DHT22;8249;48.708;9.030;2023-02-23T01:28:11;8.50;99.90
16283;DHT22;8249;48.708;9.030;2023-02-23T01:30:39;8.50;99.90
16283;DHT22;8249;48.708;9.030;2023-02-23T01:33:07;8.50;99.90
16283;DHT22;8249;48.708;9.030;2023-02-23T01:35:34;8.50;99.90
16283;DHT22;8249;48.708;9.030;2023-02-23T01:38:02;8.50;99.90
16283;DHT22;8249;48.708;9.030;2023-02-23T01:40:30;8.50;99.90
16283;DHT22;8249;48.708;9.030;2023-02-23T01:43:09;8.50;99.90
16283;DHT22;8249;48.708;9.030;2023-02-23T01:45:38;8.50;99.90
16283;DHT22;8249;48.708;9.030;2023-02-23T01:48:07;8.60;99.90
16283;DHT22;8249;48.708;9.030;2023-02-23T01:50:43;8.60;99.90
16283;DHT22;8249;48.708;9.030;2023-02-23T01:53:12;8.60;99.90
16283;DHT22;8249;48.708;9.030;2023-02-23T01:55:40;8.60;99.90
16283;DHT22;8249;48.708;9.030;2023-02-23T01:58:11;8.60;99.90
16283;DHT22;8249;48.708;9.030;2023-02-23T02:00:43;8.60;99.90
16283;DHT22;8249;48.708;9.030;2023-02-23T02:03:14;8.50;99.90
16283;DHT22;8249;48.708;9.030;2023-02-23T02:05:43;8.50;99.90
16283;DHT22;8249;48.708;9.030;2023-02-23T02:08:11;8.60;99.90
16283;DHT22;8249;48.708;9.030;2023-02-23T02:10:39;8.50;99.90
16283;DHT22;8249;48.708;9.030;2023-02-23T02:13:06;8.60;99.90
16283;DHT22;8249;48.708;9.030;2023-02-23T02:15:43;8.50;99.90
16283;DHT22;8249;48.708;9.030;2023-02-23T02:18:25;8.60;99.90
16283;DHT22;8249;48.708;9.030;2023-02-23T02:21:23;8.60;99.90
16283;DHT22;8249;48.708;9.030;2023-02-23T02:27:17;8.50;99.90
16283;DHT22;8249;48.708;9.030;2023-02-23T02:30:16;8.50;99.90
16283;DHT22;8249;48.708;9.030;2023-02-23T02:33:26;8.60;99.90
16283;DHT22;8249;48.708;9.030;2023-02-23T02:39:21;8.60;99.90
16283;DHT22;8249;48.708;9.030;2023-02-23T02:42:06;8.60;99.90
16283;DHT22;8249;48.708;9.030;2023-02-23T02:44:41;8.60;99.90
16283;DHT22;8249;48.708;9.030;2023-02-23T02:47:16;8.60;99.90
16283;DHT22;8249;48.708;9.030;2023-02-23T02:49:49;8.60;99.90
16283;DHT22;8249;48.708;9.030;2023-02-23T02:52:22;8.60;99.90
16283;DHT22;8249;48.708;9.030;2023-02-23T02:54:55;8.60;99.90
16283;DHT22;8249;48.708;9.030;2023-02-23T02:57:26;8.60;99.90
16283;DHT22;8249;48.708;9.030;2023-02-23T02:59:56;8.50;99.90
16283;DHT22;8249;48.708;9.030;2023-02-23T03:02:41;8.60;99.90
16283;DHT22;8249;48.708;9.030;2023-02-23T03:05:30;8.60;99.90
16283;DHT22;8249;48.708;9.030;2023-02-23T03:08:21;8.60;99.90
16283;DHT22;8249;48.708;9.030;2023-02-23T03:11:15;8.60;99.90
16283;DHT22;8249;48.708;9.030;2023-02-23T03:14:15;8.60;99.90
16283;DHT22;8249;48.708;9.030;2023-02-23T03:17:06;8.60;99.90
16283;DHT22;8249;48.708;9.030;2023-02-23T03:19:58;8.60;99.90
16283;DHT22;8249;48.708;9.030;2023-02-23T03:22:52;8.60;99.90
16283;DHT22;8249;48.708;9.030;2023-02-23T03:25:47;8.70;99.90
16283;DHT22;8249;48.708;9.030;2023-02-23T03:28:40;8.60;99.90
16283;DHT22;8249;48.708;9.030;2023-02-23T03:31:36;8.70;99.90
16283;DHT22;8249;48.708;9.030;2023-02-23T03:34:26;8.70;99.90
16283;DHT22;8249;48.708;9.030;2023-02-23T03:37:20;8.70;99.90
16283;DHT22;8249;48.708;9.030;2023-02-23T03:40:10;8.70;99.90
16283;DHT22;8249;48.708;9.030;2023-02-23T03:42:58;8.70;99.90
16283;DHT22;8249;48.708;9.030;2023-02-23T03:45:47;8.70;99.90
16283;DHT22;8249;48.708;9.030;2023-02-23T03:48:35;8.70;99.90
16283;DHT22;8249;48.708;9.030;2023-02-23T03:51:21;8.70;99.90
16283;DHT22;8249;48.708;9.030;2023-02-23T03:54:10;8.70;99.90
16283;DHT22;8249;48.708;9.030;2023-02-23T03:56:58;8.70;99.90
16283;DHT22;8249;48.708;9.030;2023-02-23T03:59:49;8.70;99.90
16283;DHT22;8249;48.708;9.030;2023-02-23T04:02:43;8.70;99.90
16283;DHT22;8249;48.708;9.030;2023-02-23T04:05:29;8.70;99.90
16283;DHT22;8249;48.708;9.030;2023-02-23T04:08:17;8.70;99.90
16283;DHT22;8249;48.708;9.030;2023-02-23T04:11:10;8.70;99.90
16283;DHT22;8249;48.708;9.030;2023-02-23T04:13:59;8.70;99.90
16283;DHT22;8249;48.708;9.030;2023-02-23T04:16:28;8.80;99.90
16283;DHT22;8249;48.708;9.030;2023-02-23T04:18:56;8.70;99.90
16283;DHT22;8249;48.708;9.030;2023-02-23T04:21:23;8.70;99.90
16283;DHT22;8249;48.708;9.030;2023-02-23T04:23:51;8.70;99.90
16283;DHT22;8249;48.708;9.030;2023-02-23T04:26:17;8.70;99.90
16283;DHT22;8249;48.708;9.030;2023-02-23T04:28:44;8.60;99.90
16283;DHT22;8249;48.708;9.030;2023-02-23T04:31:12;8.70;99.90
16283;DHT22;8249;48.708;9.030;2023-02-23T04:33:39;8.60;99.90
16283;DHT22;8249;48.708;9.030;2023-02-23T04:36:07;8.60;99.90
16283;DHT22;8249;48.708;9.030;2023-02-23T04:38:34;8.60;99.90
16283;DHT22;8249;48.708;9.030;2023-02-23T04:41:01;8.60;99.90
16283;DHT22;8249;48.708;9.030;2023-02-23T04:43:28;8.50;99.90
16283;DHT22;8249;48.708;9.030;2023-02-23T04:45:55;8.50;99.90
16283;DHT22;8249;48.708;9.030;2023-02-23T04:48:22;8.60;99.90
16283;DHT22;8249;48.708;9.030;2023-02-23T04:50:51;8.50;99.90
16283;DHT22;8249;48.708;9.030;2023-02-23T04:53:20;8.50;99.90
16283;DHT22;8249;48.708;9.030;2023-02-23T04:55:47;8.50;99.90
16283;DHT22;8249;48.708;9.030;2023-02-23T04:58:14;8.50;99.90
16283;DHT22;8249;48.708;9.030;2023-02-23T05:00:41;8.50;99.90
16283;DHT22;8249;48.708;9.030;2023-02-23T05:03:08;8.50;99.90
16283;DHT22;8249;48.708;9.030;2023-02-23T05:05:37;8.50;99.90
16283;DHT22;8249;48.708;9.030;2023-02-23T05:08:04;8.50;99.90
16283;DHT22;8249;48.708;9.030;2023-02-23T05:10:33;8.50;99.90
16283;DHT22;8249;48.708;9.030;2023-02-23T05:13:00;8.40;99.90
16283;DHT22;8249;48.708;9.030;2023-02-23T05:15:28;8.40;99.90
16283;DHT22;8249;48.708;9.030;2023-02-23T05:17:55;8.40;99.90
16283;DHT22;8249;48.708;9.030;2023-02-23T05:20:22;8.40;99.90
16283;DHT22;8249;48.708;9.030;2023-02-23T05:22:49;8.40;99.90
16283;DHT22;8249;48.708;9.030;2023-02-23T05:25:16;8.40;99.90
16283;DHT22;8249;48.708;9.030;2023-02-23T05:27:44;8.40;99.90
16283;DHT22;8249;48.708;9.030;2023-02-23T05:30:11;8.40;99.90
16283;DHT22;8249;48.708;9.030;2023-02-23T05:32:38;8.40;99.90
16283;DHT22;8249;48.708;9.030;2023-02-23T05:35:06;8.40;99.90
16283;DHT22;8249;48.708;9.030;2023-02-23T05:37:33;8.40;99.90
16283;DHT22;8249;48.708;9.030;2023-02-23T05:40:00;8.30;99.90
16283;DHT22;8249;48.708;9.030;2023-02-23T05:42:27;8.40;99.90
16283;DHT22;8249;48.708;9.030;2023-02-23T05:44:55;8.40;99.90
16283;DHT22;8249;48.708;9.030;2023-02-23T05:47:23;8.30;99.90
16283;DHT22;8249;48.708;9.030;2023-02-23T05:49:50;8.30;99.90
16283;DHT22;8249;48.708;9.030;2023-02-23T05:52:17;8.30;99.90
16283;DHT22;8249;48.708;9.030;2023-02-23T05:54:44;8.40;99.90
16283;DHT22;8249;48.708;9.030;2023-02-23T05:57:11;8.40;99.90
16283;DHT22;8249;48.708;9.030;2023-02-23T05:59:38;8.60;99.90
16283;DHT22;8249;48.708;9.030;2023-02-23T06:02:06;8.60;99.90
16283;DHT22;8249;48.708;9.030;2023-02-23T06:04:33;8.70;99.90
16283;DHT22;8249;48.708;9.030;2023-02-23T06:07:00;8.70;99.90
16283;DHT22;8249;48.708;9.030;2023-02-23T06:09:27;8.70;99.90
16283;DHT22;8249;48.708;9.030;2023-02-23T06:11:55;8.80;99.90
16283;DHT22;8249;48.708;9.030;2023-02-23T06:14:24;8.80;99.90
16283;DHT22;8249;48.708;9.030;2023-02-23T06:16:51;8.90;99.90
16283;DHT22;8249;48.708;9.030;2023-02-23T06:19:20;8.90;99.90
16283;DHT22;8249;48.708;9.030;2023-02-23T06:21:47;8.80;99.90
16283;DHT22;8249;48.708;9.030;2023-02-23T06:24:14;8.80;99.90
16283;DHT22;8249;48.708;9.030;2023-02-23T06:26:41;8.80;99.90
16283;DHT22;8249;48.708;9.030;2023-02-23T06:29:08;8.70;99.90
16283;DHT22;8249;48.708;9.030;2023-02-23T06:31:36;8.70;99.90
16283;DHT22;8249;48.708;9.030;2023-02-23T06:34:05;8.60;99.90
16283;DHT22;8249;48.708;9.030;2023-02-23T06:36:33;8.60;99.90
16283;DHT22;8249;48.708;9.030;2023-02-23T06:39:00;8.60;99.90
16283;DHT22;8249;48.708;9.030;2023-02-23T06:41:27;8.50;99.90
16283;DHT22;8249;48.708;9.030;2023-02-23T06:43:55;8.50;99.90
16283;DHT22;8249;48.708;9.030;2023-02-23T06:46:23;8.40;99.90
16283;DHT22;8249;48.708;9.030;2023-02-23T06:48:53;8.40;99.90
16283;DHT22;8249;48.708;9.030;2023-02-23T06:51:20;8.40;99.90
16283;DHT22;8249;48.708;9.030;2023-02-23T06:53:48;8.40;99.90
16283;DHT22;8249;48.708;9.030;2023-02-23T06:56:17;8.40;99.90
16283;DHT22;8249;48.708;9.030;2023-02-23T06:58:44;8.40;99.90
16283;DHT22;8249;48.708;9.030;2023-02-23T07:01:11;8.40;99.90
16283;DHT22;8249;48.708;9.030;2023-02-23T07:03:38;8.40;99.90
16283;DHT22;8249;48.708;9.030;2023-02-23T07:06:05;8.50;99.90
16283;DHT22;8249;48.708;9.030;2023-02-23T07:08:32;8.30;99.90
16283;DHT22;8249;48.708;9.030;2023-02-23T07:11:06;8.40;99.90
16283;DHT22;8249;48.708;9.030;2023-02-23T07:13:33;8.40;99.90
16283;DHT22;8249;48.708;9.030;2023-02-23T07:16:00;8.40;99.90
16283;DHT22;8249;48.708;9.030;2023-02-23T07:18:27;8.40;99.90
16283;DHT22;8249;48.708;9.030;2023-02-23T07:20:54;8.40;99.90
16283;DHT22;8249;48.708;9.030;2023-02-23T07:23:21;8.50;99.90
16283;DHT22;8249;48.708;9.030;2023-02-23T07:25:49;8.50;99.90
16283;DHT22;8249;48.708;9.030;2023-02-23T07:28:17;8.60;99.90
16283;DHT22;8249;48.708;9.030;2023-02-23T07:30:46;8.60;99.90
16283;DHT22;8249;48.708;9.030;2023-02-23T07:33:14;8.70;99.90
16283;DHT22;8249;48.708;9.030;2023-02-23T07:35:42;8.70;99.90
16283;DHT22;8249;48.708;9.030;2023-02-23T07:38:09;8.80;99.90
16283;DHT22;8249;48.708;9.030;2023-02-23T07:40:37;8.80;99.90
16283;DHT22;8249;48.708;9.030;2023-02-23T07:43:04;8.90;99.90
16283;DHT22;8249;48.708;9.030;2023-02-23T07:45:32;8.90;99.90
16283;DHT22;8249;48.708;9.030;2023-02-23T07:47:59;9.00;99.90
16283;DHT22;8249;48.708;9.030;2023-02-23T07:50:26;9.10;99.90
16283;DHT22;8249;48.708;9.030;2023-02-23T07:52:53;9.10;99.90
16283;DHT22;8249;48.708;9.030;2023-02-23T07:55:20;9.20;99.90
16283;DHT22;8249;48.708;9.030;2023-02-23T07:57:47;9.20;99.90
16283;DHT22;8249;48.708;9.030;2023-02-23T08:00:14;9.30;99.90
16283;DHT22;8249;48.708;9.030;2023-02-23T08:02:43;9.40;99.90
16283;DHT22;8249;48.708;9.030;2023-02-23T08:05:11;9.40;99.90
16283;DHT22;8249;48.708;9.030;2023-02-23T08:07:38;9.50;99.90
16283;DHT22;8249;48.708;9.030;2023-02-23T08:10:05;9.60;99.90
16283;DHT22;8249;48.708;9.030;2023-02-23T08:12:32;9.60;99.90
16283;DHT22;8249;48.708;9.030;2023-02-23T08:14:59;9.70;99.90
16283;DHT22;8249;48.708;9.030;2023-02-23T08:17:27;9.70;99.90
16283;DHT22;8249;48.708;9.030;2023-02-23T08:19:56;9.70;99.90
16283;DHT22;8249;48.708;9.030;2023-02-23T08:22:23;9.80;99.90
16283;DHT22;8249;48.708;9.030;2023-02-23T08:24:50;9.80;99.90
16283;DHT22;8249;48.708;9.030;2023-02-23T08:27:17;9.90;99.90
16283;DHT22;8249;48.708;9.030;2023-02-23T08:29:44;10.00;99.90
16283;DHT22;8249;48.708;9.030;2023-02-23T08:32:11;10.00;99.90
16283;DHT22;8249;48.708;9.030;2023-02-23T08:34:39;10.10;99.90
16283;DHT22;8249;48.708;9.030;2023-02-23T08:37:08;10.10;99.90
16283;DHT22;8249;48.708;9.030;2023-02-23T08:39:35;10.00;99.90
16283;DHT22;8249;48.708;9.030;2023-02-23T08:42:02;10.10;99.90
16283;DHT22;8249;48.708;9.030;2023-02-23T08:44:29;10.10;99.90
16283;DHT22;8249;48.708;9.030;2023-02-23T08:46:56;10.20;99.90
16283;DHT22;8249;48.708;9.030;2023-02-23T08:49:24;10.30;99.90
16283;DHT22;8249;48.708;9.030;2023-02-23T08:51:51;10.40;99.90
16283;DHT22;8249;48.708;9.030;2023-02-23T08:54:19;10.50;99.90
16283;DHT22;8249;48.708;9.030;2023-02-23T08:56:46;10.60;99.90
16283;DHT22;8249;48.708;9.030;2023-02-23T08:59:13;10.60;99.90
16283;DHT22;8249;48.708;9.030;2023-02-23T09:01:40;10.60;99.90
16283;DHT22;8249;48.708;9.030;2023-02-23T09:04:08;10.70;99.90
16283;DHT22;8249;48.708;9.030;2023-02-23T09:06:35;10.70;99.90
16283;DHT22;8249;48.708;9.030;2023-02-23T09:09:02;10.70;99.90
16283;DHT22;8249;48.708;9.030;2023-02-23T09:11:31;10.70;99.90
16283;DHT22;8249;48.708;9.030;2023-02-23T09:13:58;10.70;99.90
16283;DHT22;8249;48.708;9.030;2023-02-23T09:16:25;10.80;99.90
16283;DHT22;8249;48.708;9.030;2023-02-23T09:18:52;10.90;99.90
16283;DHT22;8249;48.708;9.030;2023-02-23T09:21:20;10.90;99.90
16283;DHT22;8249;48.708;9.030;2023-02-23T09:23:50;11.00;99.90
16283;DHT22;8249;48.708;9.030;2023-02-23T09:26:19;11.10;99.90
16283;DHT22;8249;48.708;9.030;2023-02-23T09:28:50;11.00;99.90
16283;DHT22;8249;48.708;9.030;2023-02-23T09:31:18;11.00;99.90
16283;DHT22;8249;48.708;9.030;2023-02-23T09:33:46;11.10;99.90
16283;DHT22;8249;48.708;9.030;2023-02-23T09:36:14;11.10;99.90
16283;DHT22;8249;48.708;9.030;2023-02-23T09:38:42;11.30;99.90
16283;DHT22;8249;48.708;9.030;2023-02-23T09:44:20;11.70;99.90
16283;DHT22;8249;48.708;9.030;2023-02-23T09:46:59;11.90;99.90
16283;DHT22;8249;48.708;9.030;2023-02-23T09:49:32;12.20;99.90
16283;DHT22;8249;48.708;9.030;2023-02-23T09:52:00;12.50;99.90
16283;DHT22;8249;48.708;9.030;2023-02-23T09:54:31;12.80;99.90
16283;DHT22;8249;48.708;9.030;2023-02-23T09:57:01;13.20;99.90
16283;DHT22;8249;48.708;9.030;2023-02-23T09:59:30;13.50;99.90
16283;DHT22;8249;48.708;9.030;2023-02-23T10:02:03;13.40;99.90
16283;DHT22;8249;48.708;9.030;2023-02-23T10:04:36;13.80;99.90
16283;DHT22;8249;48.708;9.030;2023-02-23T10:07:10;13.70;99.90
16283;DHT22;8249;48.708;9.030;2023-02-23T10:09:56;13.70;99.90
16283;DHT22;8249;48.708;9.030;2023-02-23T10:12:29;13.60;99.90
16283;DHT22;8249;48.708;9.030;2023-02-23T10:15:12;14.00;99.90
16283;DHT22;8249;48.708;9.030;2023-02-23T10:17:47;13.80;99.90
16283;DHT22;8249;48.708;9.030;2023-02-23T10:20:23;13.80;99.90
16283;DHT22;8249;48.708;9.030;2023-02-23T10:22:55;13.60;99.90
16283;DHT22;8249;48.708;9.030;2023-02-23T10:25:29;13.60;99.90
16283;DHT22;8249;48.708;9.030;2023-02-23T10:27:57;13.60;99.90
16283;DHT22;8249;48.708;9.030;2023-02-23T10:30:28;13.70;99.90
16283;DHT22;8249;48.708;9.030;2023-02-23T10:33:00;13.60;99.90
16283;DHT22;8249;48.708;9.030;2023-02-23T10:35:30;13.70;99.90
16283;DHT22;8249;48.708;9.030;2023-02-23T10:37:59;13.80;99.90
16283;DHT22;8249;48.708;9.030;2023-02-23T10:40:31;14.00;99.90
16283;DHT22;8249;48.708;9.030;2023-02-23T10:42:59;14.20;99.90
16283;DHT22;8249;48.708;9.030;2023-02-23T10:45:32;14.40;99.90
16283;DHT22;8249;48.708;9.030;2023-02-23T10:48:03;14.60;99.90
16283;DHT22;8249;48.708;9.030;2023-02-23T10:50:31;14.80;99.90
16283;DHT22;8249;48.708;9.030;2023-02-23T10:53:08;14.70;99.90
16283;DHT22;8249;48.708;9.030;2023-02-23T10:55:40;14.30;99.90
16283;DHT22;8249;48.708;9.030;2023-02-23T10:58:10;14.20;99.90
16283;DHT22;8249;48.708;9.030;2023-02-23T11:00:51;14.00;99.90
16283;DHT22;8249;48.708;9.030;2023-02-23T11:03:24;14.00;99.90
16283;DHT22;8249;48.708;9.030;2023-02-23T11:05:51;14.10;99.90
16283;DHT22;8249;48.708;9.030;2023-02-23T11:08:23;14.20;99.90
16283;DHT22;8249;48.708;9.030;2023-02-23T11:11:10;14.00;99.90
16283;DHT22;8249;48.708;9.030;2023-02-23T11:13:45;14.00;99.90
16283;DHT22;8249;48.708;9.030;2023-02-23T11:16:15;14.00;99.90
16283;DHT22;8249;48.708;9.030;2023-02-23T11:18:49;14.00;99.90
16283;DHT22;8249;48.708;9.030;2023-02-23T11:21:23;14.10;99.90
16283;DHT22;8249;48.708;9.030;2023-02-23T11:23:52;14.10;99.90
16283;DHT22;8249;48.708;9.030;2023-02-23T11:26:29;14.20;99.90
16283;DHT22;8249;48.708;9.030;2023-02-23T11:28:59;14.50;99.90
16283;DHT22;8249;48.708;9.030;2023-02-23T11:31:33;15.10;99.90
16283;DHT22;8249;48.708;9.030;2023-02-23T11:34:04;15.30;99.90
16283;DHT22;8249;48.708;9.030;2023-02-23T11:36:33;15.30;99.90
16283;DHT22;8249;48.708;9.030;2023-02-23T11:39:08;15.40;99.90
16283;DHT22;8249;48.708;9.030;2023-02-23T11:41:41;15.20;99.90
16283;DHT22;8249;48.708;9.030;2023-02-23T11:44:19;15.00;99.90
16283;DHT22;8249;48.708;9.030;2023-02-23T11:46:49;14.70;99.90
16283;DHT22;8249;48.708;9.030;2023-02-23T11:49:19;14.80;99.90
16283;DHT22;8249;48.708;9.030;2023-02-23T11:51:48;15.00;99.90
16283;DHT22;8249;48.708;9.030;2023-02-23T11:54:21;15.20;99.90
16283;DHT22;8249;48.708;9.030;2023-02-23T11:56:49;15.00;99.90
16283;DHT22;8249;48.708;9.030;2023-02-23T11:59:25;15.20;99.90
16283;DHT22;8249;48.708;9.030;2023-02-23T12:02:01;15.20;99.90
16283;DHT22;8249;48.708;9.030;2023-02-23T12:04:33;15.30;99.90
16283;DHT22;8249;48.708;9.030;2023-02-23T12:10:10;15.50;99.90
16283;DHT22;8249;48.708;9.030;2023-02-23T12:12:47;15.50;99.90
16283;DHT22;8249;48.708;9.030;2023-02-23T12:15:25;15.70;99.90
16283;DHT22;8249;48.708;9.030;2023-02-23T12:17:58;15.90;99.90
16283;DHT22;8249;48.708;9.030;2023-02-23T12:20:30;15.80;99.90
16283;DHT22;8249;48.708;9.030;2023-02-23T12:23:05;15.80;99.90
16283;DHT22;8249;48.708;9.030;2023-02-23T12:25:37;15.50;99.90
16283;DHT22;8249;48.708;9.030;2023-02-23T12:28:10;15.10;99.90
16283;DHT22;8249;48.708;9.030;2023-02-23T12:30:42;15.00;99.90
16283;DHT22;8249;48.708;9.030;2023-02-23T12:33:16;14.50;99.90
16283;DHT22;8249;48.708;9.030;2023-02-23T12:35:49;14.20;99.90
16283;DHT22;8249;48.708;9.030;2023-02-23T12:38:24;14.00;99.90
16283;DHT22;8249;48.708;9.030;2023-02-23T12:40:57;13.90;99.90
16283;DHT22;8249;48.708;9.030;2023-02-23T12:43:31;13.80;99.90
16283;DHT22;8249;48.708;9.030;2023-02-23T12:46:06;13.70;99.90
16283;DHT22;8249;48.708;9.030;2023-02-23T12:48:42;13.60;99.90
16283;DHT22;8249;48.708;9.030;2023-02-23T12:51:16;13.60;99.90
16283;DHT22;8249;48.708;9.030;2023-02-23T12:53:45;13.60;99.90
16283;DHT22;8249;48.708;9.030;2023-02-23T12:56:20;13.50;99.90
16283;DHT22;8249;48.708;9.030;2023-02-23T12:58:58;13.30;99.90
16283;DHT22;8249;48.708;9.030;2023-02-23T13:01:35;13.20;99.90
16283;DHT22;8249;48.708;9.030;2023-02-23T13:04:37;13.10;99.90
16283;DHT22;8249;48.708;9.030;2023-02-23T13:07:13;13.10;99.90
16283;DHT22;8249;48.708;9.030;2023-02-23T13:09:53;13.10;99.90
16283;DHT22;8249;48.708;9.030;2023-02-23T13:12:39;13.10;99.90
16283;DHT22;8249;48.708;9.030;2023-02-23T13:15:17;13.00;99.90
16283;DHT22;8249;48.708;9.030;2023-02-23T13:17:51;13.00;99.90
16283;DHT22;8249;48.708;9.030;2023-02-23T13:20:22;13.10;99.90
16283;DHT22;8249;48.708;9.030;2023-02-23T13:22:55;13.10;99.90
16283;DHT22;8249;48.708;9.030;2023-02-23T13:25:31;13.10;99.90
16283;DHT22;8249;48.708;9.030;2023-02-23T13:28:03;13.10;99.90
16283;DHT22;8249;48.708;9.030;2023-02-23T13:30:32;13.00;99.90
16283;DHT22;8249;48.708;9.030;2023-02-23T13:33:05;13.00;99.90
16283;DHT22;8249;48.708;9.030;2023-02-23T13:35:36;13.00;99.90
16283;DHT22;8249;48.708;9.030;2023-02-23T13:38:12;12.90;99.90
16283;DHT22;8249;48.708;9.030;2023-02-23T13:40:45;12.90;99.90
16283;DHT22;8249;48.708;9.030;2023-02-23T13:43:17;12.80;99.90
16283;DHT22;8249;48.708;9.030;2023-02-23T13:45:55;12.70;99.90
16283;DHT22;8249;48.708;9.030;2023-02-23T13:48:39;12.70;99.90
16283;DHT22;8249;48.708;9.030;2023-02-23T13:51:17;12.70;99.90
16283;DHT22;8249;48.708;9.030;2023-02-23T13:53:46;12.70;99.90
16283;DHT22;8249;48.708;9.030;2023-02-23T13:56:26;12.70;99.90
16283;DHT22;8249;48.708;9.030;2023-02-23T13:59:00;12.60;99.90
16283;DHT22;8249;48.708;9.030;2023-02-23T14:01:30;12.60;99.90
16283;DHT22;8249;48.708;9.030;2023-02-23T14:03:59;12.50;99.90
16283;DHT22;8249;48.708;9.030;2023-02-23T14:06:30;12.50;99.90
16283;DHT22;8249;48.708;9.030;2023-02-23T14:09:05;12.40;99.90
16283;DHT22;8249;48.708;9.030;2023-02-23T14:11:50;12.30;99.90
16283;DHT22;8249;48.708;9.030;2023-02-23T14:14:37;12.30;99.90
16283;DHT22;8249;48.708;9.030;2023-02-23T14:20:11;12.20;99.90
16283;DHT22;8249;48.708;9.030;2023-02-23T14:23:12;12.20;99.90
16283;DHT22;8249;48.708;9.030;2023-02-23T14:25:47;12.20;99.90
16283;DHT22;8249;48.708;9.030;2023-02-23T14:28:31;12.20;99.90
16283;DHT22;8249;48.708;9.030;2023-02-23T14:31:01;12.20;99.90
16283;DHT22;8249;48.708;9.030;2023-02-23T14:33:37;12.20;99.90
16283;DHT22;8249;48.708;9.030;2023-02-23T14:36:41;12.20;99.90
16283;DHT22;8249;48.708;9.030;2023-02-23T14:39:17;12.20;99.90
16283;DHT22;8249;48.708;9.030;2023-02-23T14:41:48;12.30;99.90
16283;DHT22;8249;48.708;9.030;2023-02-23T14:44:18;12.40;99.90
16283;DHT22;8249;48.708;9.030;2023-02-23T14:46:55;12.30;99.90
16283;DHT22;8249;48.708;9.030;2023-02-23T14:49:25;12.30;99.90
16283;DHT22;8249;48.708;9.030;2023-02-23T14:51:53;12.30;99.90
16283;DHT22;8249;48.708;9.030;2023-02-23T14:54:29;12.20;99.90
16283;DHT22;8249;48.708;9.030;2023-02-23T14:56:58;12.20;99.90
16283;DHT22;8249;48.708;9.030;2023-02-23T14:59:27;12.20;99.90
16283;DHT22;8249;48.708;9.030;2023-02-23T15:01:59;12.30;99.90
16283;DHT22;8249;48.708;9.030;2023-02-23T15:04:27;12.30;99.90
16283;DHT22;8249;48.708;9.030;2023-02-23T15:06:58;12.30;99.90
16283;DHT22;8249;48.708;9.030;2023-02-23T15:09:34;12.40;99.90
16283;DHT22;8249;48.708;9.030;2023-02-23T15:12:11;12.50;99.90
16283;DHT22;8249;48.708;9.030;2023-02-23T15:14:39;12.50;99.90
16283;DHT22;8249;48.708;9.030;2023-02-23T15:17:13;12.60;99.90
16283;DHT22;8249;48.708;9.030;2023-02-23T15:19:42;12.60;99.90
16283;DHT22;8249;48.708;9.030;2023-02-23T15:22:24;12.60;99.90
16283;DHT22;8249;48.708;9.030;2023-02-23T15:24:55;12.50;99.90
16283;DHT22;8249;48.708;9.030;2023-02-23T15:27:27;12.50;99.90
16283;DHT22;8249;48.708;9.030;2023-02-23T15:29:56;12.40;99.90
16283;DHT22;8249;48.708;9.030;2023-02-23T15:32:24;12.30;99.90
16283;DHT22;8249;48.708;9.030;2023-02-23T15:34:52;12.40;99.90
16283;DHT22;8249;48.708;9.030;2023-02-23T15:37:27;12.30;99.90
16283;DHT22;8249;48.708;9.030;2023-02-23T15:39:59;12.20;99.90
16283;DHT22;8249;48.708;9.030;2023-02-23T15:42:33;12.10;99.90
16283;DHT22;8249;48.708;9.030;2023-02-23T15:45:03;12.10;99.90
16283;DHT22;8249;48.708;9.030;2023-02-23T15:47:34;12.00;99.90
16283;DHT22;8249;48.708;9.030;2023-02-23T15:50:14;12.00;99.90
16283;DHT22;8249;48.708;9.030;2023-02-23T15:52:46;11.90;99.90
16283;DHT22;8249;48.708;9.030;2023-02-23T15:55:19;11.90;99.90
16283;DHT22;8249;48.708;9.030;2023-02-23T15:57:52;11.80;99.90
16283;DHT22;8249;48.708;9.030;2023-02-23T16:00:24;11.80;99.90
16283;DHT22;8249;48.708;9.030;2023-02-23T16:02:57;11.70;99.90
16283;DHT22;8249;48.708;9.030;2023-02-23T16:05:24;11.70;99.90
16283;DHT22;8249;48.708;9.030;2023-02-23T16:08:01;11.70;99.90
16283;DHT22;8249;48.708;9.030;2023-02-23T16:10:40;11.60;99.90
16283;DHT22;8249;48.708;9.030;2023-02-23T16:13:12;11.50;99.90
16283;DHT22;8249;48.708;9.030;2023-02-23T16:15:40;11.50;99.90
16283;DHT22;8249;48.708;9.030;2023-02-23T16:18:12;11.50;99.90
16283;DHT22;8249;48.708;9.030;2023-02-23T16:20:45;11.40;99.90
16283;DHT22;8249;48.708;9.030;2023-02-23T16:23:23;11.40;99.90
16283;DHT22;8249;48.708;9.030;2023-02-23T16:25:55;11.40;99.90
16283;DHT22;8249;48.708;9.030;2023-02-23T16:28:26;11.30;99.90
16283;DHT22;8249;48.708;9.030;2023-02-23T16:30:59;11.30;99.90
16283;DHT22;8249;48.708;9.030;2023-02-23T16:33:29;11.20;99.90
16283;DHT22;8249;48.708;9.030;2023-02-23T16:36:11;11.20;99.90
16283;DHT22;8249;48.708;9.030;2023-02-23T16:38:40;11.20;99.90
16283;DHT22;8249;48.708;9.030;2023-02-23T16:41:15;11.20;99.90
16283;DHT22;8249;48.708;9.030;2023-02-23T16:43:46;11.10;99.90